• Join FlightAware (Why Join?)
  • Login
  • US Flag 
11:07AM EST


 

Airport Tracker/Info


-or-


 

Live Flight TrackerFlight Track Log ✈ SWA3206 ✈ 10-May-2013 ✈ KPHL - KMDW

Flight Track Log - Related Links

Times and Time Zones

All times are in EDT time to prevent confusion due to time zone crossing. See the SWA3206 flight status page for this flight to view local times or setup timezone preferences in your user account.

Time Position Orientation Groundspeed Altitude Reporting Facility
EDT Latitude Longitude Course Direction KTS MPH feet Rate Location/Type
11:12AM 39.8667 -75.2833 218° Southwest 143 165 900  Level Philadelphia TRACON
11:12AM 39.8500 -75.3000 218° Southwest 165 190 1,500 1,800 Climbing Philadelphia TRACON
11:13AM 39.8333 -75.3833 255° West 222 255 3,500 2,820 Climbing Philadelphia TRACON
11:14AM 39.8333 -75.4667 270° West 267 307 7,200 3,420 Climbing Philadelphia TRACON
11:16AM 39.9167 -75.4833 351° North 278 320 10,800 2,640 Climbing Philadelphia TRACON
11:17AM 40.0167 -75.5167 346° North 361 415 12,800 1,680 Climbing Philadelphia TRACON
11:17AM 40.0306 -75.5178 356° North 366 421 13,000 120 Climbing New York Center
11:18AM 40.1192 -75.5400 349° North 374 430 13,000 120 Level New York Center
11:19AM 40.2261 -75.5747 346° North 366 421 13,300 1,380 Climbing New York Center
11:20AM 40.2933 -75.6664 314° West 344 396 15,800 1,860 Climbing New York Center
11:21AM 40.3600 -75.7692 310° West 356 410 17,000 1,080 Climbing New York Center
11:22AM 40.4206 -75.8608 311° West 373 429 18,000 1,440 Climbing New York Center
11:23AM 40.4622 -76.0031 291° West 378 435 20,000 2,460 Climbing New York Center
11:24AM 40.4750 -76.1406 277° West 385 443 23,000 2,700 Climbing New York Center
11:25AM 40.4989 -76.2978 281° West 403 464 25,400 2,460 Climbing New York Center
11:26AM 40.5211 -76.4444 281° West 408 470 27,900 1,320 Climbing New York Center
11:27AM 40.5431 -76.5911 281° West 413 475 28,000  Climbing New York Center
11:28AM 40.5650 -76.7378 281° West 413 475 28,000  Level New York Center
11:29AM 40.5867 -76.8844 281° West 413 475 28,000  Level New York Center
11:30AM 40.6100 -77.0369 281° West 413 475 28,000  Level New York Center
11:31AM 40.6311 -77.1894 280° West 413 475 28,000  Level New York Center
11:32AM 40.6519 -77.3417 280° West 418 481 28,000  Level New York Center
11:33AM 40.6744 -77.4944 281° West 418 481 28,000  Level New York Center
11:35AM 40.7225 -77.8597 280° West 422 486 28,000  Level Cleveland Center
11:36AM 40.7428 -78.0153 280° West 428 493 28,000  Level Cleveland Center
11:37AM 40.7650 -78.1678 281° West 428 493 28,000  Level Cleveland Center
11:38AM 40.7847 -78.3206 280° West 428 493 28,000  Level Cleveland Center
11:39AM 40.8044 -78.4764 280° West 428 493 28,000  Level Cleveland Center
11:40AM 40.8242 -78.6431 279° West 428 493 28,000  Level Cleveland Center
11:41AM 40.8456 -78.7989 280° West 428 493 28,000  Level Cleveland Center
11:42AM 40.8686 -78.9578 281° West 433 498 28,000  Level Cleveland Center
11:43AM 40.8875 -79.1108 279° West 433 498 28,000  Level Cleveland Center
11:44AM 40.9061 -79.2700 279° West 433 498 28,000  Level Cleveland Center
11:45AM 40.9244 -79.4233 279° West 433 498 28,000  Level Cleveland Center
11:46AM 40.9425 -79.5797 279° West 433 498 28,000  Level Cleveland Center
11:47AM 40.9606 -79.7389 279° West 433 498 28,000  Level Cleveland Center
11:48AM 40.9803 -79.8900 280° West 428 493 28,000  Level Cleveland Center
11:49AM 40.9978 -80.0439 279° West 428 493 28,000  Level Cleveland Center
11:50AM 41.0150 -80.2006 278° West 428 493 28,000  Level Cleveland Center
11:51AM 41.0342 -80.3519 280° West 428 493 28,000  Level Cleveland Center
11:52AM 41.0489 -80.5061 277° West 428 493 28,000  Level Cleveland Center
11:53AM 41.0656 -80.6436 279° West 428 493 28,000  Level Cleveland Center
11:54AM 41.0822 -80.7953 278° West 428 493 28,000  Level Cleveland Center
11:55AM 41.0964 -80.9386 278° West 416 479 28,000  Level Cleveland Center
11:56AM 41.1106 -81.0903 277° West 401 461 28,000  Level Cleveland Center
11:57AM 41.1264 -81.2281 279° West 384 442 28,000  Level Cleveland Center
11:58AM 41.1403 -81.3606 278° West 379 436 28,000 -240 Level Cleveland Center
11:59AM 41.1539 -81.4767 279° West 369 425 27,600 -720 Descending Cleveland Center
12:00PM 41.1694 -81.6147 279° West 369 425 26,600 -840 Descending Cleveland Center
12:01PM 41.1828 -81.7503 277° West 369 425 26,000 -300 Descending Cleveland Center
12:02PM 41.1958 -81.8911 277° West 374 430 26,000  Level Cleveland Center
12:03PM 41.2106 -82.0486 277° West 402 463 26,000  Level Cleveland Center
12:04PM 41.2231 -82.2064 276° West 434 499 26,000  Level Cleveland Center
12:05PM 41.2392 -82.3753 277° West 434 499 26,000  Level Cleveland Center
12:06PM 41.2533 -82.5247 277° West 420 483 26,000  Level Cleveland Center
12:07PM 41.2675 -82.6772 277° West 415 478 26,000  Level Cleveland Center
12:08PM 41.2811 -82.8297 277° West 415 478 26,000  Level Cleveland Center
12:09PM 41.2928 -82.9792 276° West 415 478 26,000  Level Cleveland Center
12:10PM 41.3083 -83.1292 278° West 415 478 26,000  Level Cleveland Center
12:11PM 41.3175 -83.2678 275° West 415 478 26,000  Level Cleveland Center
12:12PM 41.3306 -83.4175 277° West 415 478 26,000 -120 Level Cleveland Center
12:13PM 41.3436 -83.5675 277° West 415 478 25,800 -480 Descending Cleveland Center
12:14PM 41.3561 -83.7175 276° West 410 472 25,100 -900 Descending Cleveland Center
12:15PM 41.3686 -83.8675 276° West 410 472 24,100 -480 Descending Cleveland Center
12:17PM 41.3897 -84.0919 277° West 409 471 24,000 -60 Descending Chicago Center
12:18PM 41.4014 -84.2419 276° West 409 471 24,000  Level Chicago Center
12:19PM 41.4147 -84.4211 276° West 406 467 24,000  Level Chicago Center
12:20PM 41.4256 -84.5717 276° West 408 470 24,000  Level Chicago Center
12:21PM 41.4375 -84.7228 276° West 410 472 24,000  Level Chicago Center
12:22PM 41.4478 -84.8708 275° West 405 466 24,000  Level Chicago Center
12:23PM 41.4583 -85.0231 275° West 411 473 24,000  Level Chicago Center
12:24PM 41.4689 -85.1739 275° West 408 470 24,000 -540 Level Chicago Center
12:25PM 41.4786 -85.3253 275° West 406 467 23,000 -1,020 Descending Chicago Center
12:26PM 41.4886 -85.4792 275° West 407 468 21,900 -1,020 Descending Chicago Center
12:27PM 41.5014 -85.6614 275° West 405 466 20,900 -1,020 Descending Chicago Center
12:28PM 41.5075 -85.8136 273° West 409 471 19,900 -1,020 Descending Chicago Center
12:29PM 41.5114 -85.9614 272° West 398 458 18,800 -1,560 Descending Chicago Center
12:30PM 41.5150 -86.1064 272° West 391 450 16,700 -2,460 Descending Chicago Center
12:31PM 41.5189 -86.2447 272° West 373 429 13,800 -2,760 Descending Chicago Center
12:32PM 41.5222 -86.3769 272° West 359 413 11,100 -1,920 Descending Chicago Center
12:33PM 41.5214 -86.5303 270° West 345 397 9,900 -600 Descending Chicago Center
12:34PM 41.5200 -86.6556 269° West 338 389 9,900  Level Chicago Center
12:35PM 41.5203 -86.7708 270° West 340 391 9,900 -360 Level Chicago Center
12:36PM 41.5186 -86.8914 269° West 270 311 9,200 -1,080 Descending Chicago Center
12:37PM 41.5186 -86.9858 270° West 257 296 7,700 -1,440 Descending Chicago Center
12:39PM 41.5342 -87.0775 283° West 254 292 6,300 -1,080 Descending Chicago Center
12:40PM 41.5542 -87.1669 287° West 254 292 5,500 -960 Descending Chicago Center
12:40PM 41.5667 -87.2167 289° West 251 289 5,000 -1,020 Descending Chicago TRACON
12:41PM 41.5833 -87.3000 285° West 254 292 4,100 -540 Descending Chicago TRACON
12:42PM 41.6000 -87.3833 285° West 250 288 4,000 -60 Descending Chicago TRACON
12:43PM 41.6128 -87.4481 285° West 247 284 4,000  Level Chicago Center
12:44PM 41.6267 -87.5211 284° West 226 260 4,000  Level Chicago Center
12:45PM 41.6597 -87.5758 309° West 206 237 4,000 -420 Level Chicago Center
12:46PM 41.6933 -87.6228 314° West 190 219 3,200 -960 Descending Chicago Center
12:47PM 41.7317 -87.6781 313° West 178 205 2,100 -900 Descending Chicago Center
12:48PM 41.7556 -87.7119 313° West 152 175 1,400 -540 Descending Chicago Center
12:49PM 41.7753 -87.7392 314° West 137 158 1,000 -420 Descending Chicago Center
12:51PM 41.7833 -87.7500 334° Northwest  Level FlightAware Approximate